createdAt,value
2022-12-26T00:01:12.389Z,99372.18
2022-12-26T00:03:40.784Z,99373.77
2022-12-26T00:06:21.522Z,99374.40
2022-12-26T00:08:51.832Z,99380.23
2022-12-26T00:11:22.944Z,99377.14
2022-12-26T00:14:06.104Z,99374.29
2022-12-26T00:16:34.826Z,99369.91
2022-12-26T00:19:08.880Z,99369.89
2022-12-26T00:21:44.465Z,99371.60
2022-12-26T00:24:15.775Z,99383.50
2022-12-26T00:26:44.055Z,99385.38
2022-12-26T00:29:14.377Z,99385.41
2022-12-26T00:31:48.011Z,99382.81
2022-12-26T00:34:19.706Z,99378.54
2022-12-26T00:36:57.432Z,99386.73
2022-12-26T00:40:04.705Z,99407.27
2022-12-26T00:42:39.613Z,99428.81
2022-12-26T00:45:16.668Z,99431.92
2022-12-26T00:47:44.784Z,99422.73
2022-12-26T00:50:15.935Z,99414.57
2022-12-26T00:52:44.885Z,99408.98
2022-12-26T00:55:16.916Z,99411.40
2022-12-26T00:57:46.548Z,99415.17
2022-12-26T01:00:18.270Z,99423.73
2022-12-26T01:02:54.131Z,99419.18
2022-12-26T01:05:22.523Z,99403.70
2022-12-26T01:08:20.225Z,99399.61
2022-12-26T01:10:46.741Z,99392.48
2022-12-26T01:13:15.807Z,99396.07
2022-12-26T01:15:54.475Z,99402.38
2022-12-26T01:18:22.518Z,99402.47
2022-12-26T01:20:50.579Z,99400.23
2022-12-26T01:23:18.640Z,99399.27
2022-12-26T01:26:15.372Z,99401.01
2022-12-26T01:28:36.290Z,99396.09
2022-12-26T01:31:06.801Z,99388.92
2022-12-26T01:33:34.991Z,99383.89
2022-12-26T01:36:03.044Z,99377.42
2022-12-26T01:38:32.212Z,99367.84
2022-12-26T01:41:19.960Z,99377.80
2022-12-26T01:44:05.696Z,99378.30
2022-12-26T01:46:46.605Z,99377.64
2022-12-26T01:49:31.494Z,99376.05
2022-12-26T01:52:08.705Z,99376.51
2022-12-26T01:54:43.143Z,99391.27
2022-12-26T01:57:38.062Z,99405.02
2022-12-26T02:00:07.487Z,99419.35
2022-12-26T02:03:01.859Z,99421.77
2022-12-26T02:05:36.058Z,99419.83
2022-12-26T02:08:10.286Z,99418.23
2022-12-26T02:10:57.076Z,99428.80
2022-12-26T02:13:29.419Z,99437.16
2022-12-26T02:15:57.881Z,99433.27
2022-12-26T02:18:27.051Z,99428.57
2022-12-26T02:21:14.431Z,99426.70
2022-12-26T02:24:01.423Z,99429.15
2022-12-26T02:26:49.145Z,99439.66
2022-12-26T02:29:29.307Z,99438.61
2022-12-26T02:32:15.299Z,99427.09
2022-12-26T02:35:16.293Z,99429.16
2022-12-26T02:38:22.531Z,99413.23
2022-12-26T02:41:09.282Z,99402.24
2022-12-26T02:43:47.554Z,99409.45
2022-12-26T02:46:40.821Z,99426.45
2022-12-26T02:49:17.091Z,99425.02
2022-12-26T02:52:24.382Z,99408.10
2022-12-26T02:55:21.022Z,99403.59
2022-12-26T02:58:24.895Z,99404.59
2022-12-26T03:01:34.142Z,99412.21
2022-12-26T03:04:27.488Z,99424.66
2022-12-26T03:07:19.169Z,99430.13
2022-12-26T03:10:08.723Z,99433.81
2022-12-26T03:13:05.082Z,99418.71
2022-12-26T03:15:57.663Z,99410.40
2022-12-26T03:18:58.417Z,99412.83
2022-12-26T03:21:26.415Z,99418.24
2022-12-26T03:23:57.155Z,99415.98
2022-12-26T03:26:41.008Z,99413.88
2022-12-26T03:29:41.990Z,99410.05
2022-12-26T03:32:12.533Z,99411.49
2022-12-26T03:34:44.528Z,99412.42
2022-12-26T03:37:59.590Z,99411.14
2022-12-26T03:41:27.623Z,99406.63
2022-12-26T03:44:53.439Z,99401.42
2022-12-26T03:47:49.799Z,99403.14
2022-12-26T03:51:02.246Z,99405.19
2022-12-26T03:54:03.158Z,99401.59
2022-12-26T03:57:05.000Z,99406.04
2022-12-26T04:00:06.001Z,99419.37
2022-12-26T04:03:03.006Z,99429.41
2022-12-26T04:05:52.079Z,99435.45
2022-12-26T04:08:48.267Z,99433.60
2022-12-26T04:11:37.319Z,99433.86
2022-12-26T04:14:53.573Z,99433.88
2022-12-26T04:17:52.539Z,99432.99
2022-12-26T04:20:34.192Z,99438.55
2022-12-26T04:23:30.217Z,99443.39
2022-12-26T04:26:25.965Z,99447.48
2022-12-26T04:29:12.569Z,99453.20
2022-12-26T04:32:01.451Z,99453.48
2022-12-26T04:35:22.555Z,99460.90
2022-12-26T04:38:11.167Z,99466.91
2022-12-26T04:41:02.219Z,99477.09
2022-12-26T04:43:52.018Z,99481.60
2022-12-26T04:46:23.349Z,99479.19
2022-12-26T04:49:13.589Z,99480.36
2022-12-26T04:51:41.607Z,99478.42
2022-12-26T04:54:09.802Z,99478.19
2022-12-26T04:56:38.844Z,99473.39
2022-12-26T04:59:09.136Z,99462.86
2022-12-26T05:01:55.759Z,99455.77
2022-12-26T05:04:43.634Z,99445.87
2022-12-26T05:07:40.202Z,99448.49
2022-12-26T05:10:15.944Z,99460.63
2022-12-26T05:12:44.013Z,99460.36
2022-12-26T05:15:12.359Z,99460.41
2022-12-26T05:17:58.960Z,99456.95
2022-12-26T05:20:47.360Z,99449.80
2022-12-26T05:23:42.443Z,99451.79
2022-12-26T05:26:36.237Z,99451.24
2022-12-26T05:29:04.622Z,99448.13
2022-12-26T05:31:36.180Z,99451.65
2022-12-26T05:34:17.584Z,99453.02
2022-12-26T05:36:51.887Z,99453.44
2022-12-26T05:39:20.374Z,99457.06
2022-12-26T05:41:48.503Z,99458.05
2022-12-26T05:44:17.182Z,99459.29
2022-12-26T05:46:47.213Z,99467.84
2022-12-26T05:49:16.426Z,99473.67
2022-12-26T05:51:45.251Z,99482.69
2022-12-26T05:54:13.517Z,99489.02
2022-12-26T05:56:45.869Z,99489.05
2022-12-26T05:59:17.375Z,99495.66
2022-12-26T06:01:45.541Z,99499.39
2022-12-26T06:04:14.928Z,99500.29
2022-12-26T06:06:43.050Z,99500.29
2022-12-26T06:09:11.054Z,99502.33
2022-12-26T06:11:43.809Z,99495.92
2022-12-26T06:14:17.258Z,99490.96
2022-12-26T06:16:45.436Z,99493.88
2022-12-26T06:19:13.450Z,99490.95
2022-12-26T06:21:41.599Z,99495.05
2022-12-26T06:24:09.666Z,99495.72
2022-12-26T06:26:37.939Z,99497.94
2022-12-26T06:29:06.000Z,99507.25
2022-12-26T06:31:34.472Z,99507.36
2022-12-26T06:34:02.754Z,99512.34
2022-12-26T06:36:34.293Z,99517.66
2022-12-26T06:39:02.660Z,99516.10
2022-12-26T06:41:30.907Z,99518.27
2022-12-26T06:44:00.058Z,99513.38
2022-12-26T06:46:31.189Z,99505.23
2022-12-26T06:57:35.565Z,99491.08
2022-12-26T07:00:49.239Z,99484.22
2022-12-26T07:07:35.335Z,99478.33
2022-12-26T07:18:42.387Z,99484.23
2022-12-26T07:29:38.720Z,99501.16
2022-12-26T07:33:02.373Z,99504.66
2022-12-26T07:39:50.302Z,99493.95
2022-12-26T07:42:43.492Z,99479.35
2022-12-26T07:53:36.032Z,99489.21
2022-12-26T08:04:13.038Z,99509.05
2022-12-26T08:11:03.593Z,99496.19
2022-12-26T08:14:05.673Z,99496.71
2022-12-26T08:25:10.163Z,99476.23
2022-12-26T08:36:13.271Z,99470.16
2022-12-26T08:47:00.233Z,99443.67
2022-12-26T09:02:07.006Z,99423.56
2022-12-26T09:08:59.728Z,99416.98
2022-12-26T09:28:40.911Z,99403.52
2022-12-26T09:39:22.956Z,99393.85
2022-12-26T09:50:36.050Z,99396.70
2022-12-26T10:01:49.212Z,99376.94
2022-12-26T10:04:55.049Z,99373.48
2022-12-26T10:20:41.011Z,99345.22
2022-12-26T10:36:09.060Z,99309.20
2022-12-26T10:42:59.675Z,99301.28
2022-12-26T11:02:37.804Z,99273.05
2022-12-26T11:14:01.322Z,99244.20
2022-12-26T11:25:10.012Z,99237.58
2022-12-26T11:28:21.137Z,99230.23
2022-12-26T11:39:28.795Z,99210.64
2022-12-26T11:54:58.983Z,99187.75
2022-12-26T12:01:47.438Z,99189.41
2022-12-26T12:21:41.220Z,99189.61
2022-12-26T13:08:43.658Z,99189.38
2022-12-26T13:33:58.831Z,99190.08
2022-12-26T13:49:40.050Z,99177.02
2022-12-26T13:52:19.463Z,99180.69
2022-12-26T13:54:51.888Z,99187.34
2022-12-26T13:57:41.276Z,99187.59
2022-12-26T14:00:46.186Z,99187.30
2022-12-26T14:03:21.408Z,99191.26
2022-12-26T14:06:19.847Z,99193.16
2022-12-26T14:08:56.890Z,99191.10
2022-12-26T14:11:57.100Z,99190.27
2022-12-26T14:14:37.064Z,99188.23
2022-12-26T14:17:25.715Z,99187.96
2022-12-26T14:20:01.209Z,99183.87
2022-12-26T14:22:51.847Z,99184.52
2022-12-26T14:25:44.784Z,99181.63
2022-12-26T14:28:37.850Z,99180.83
2022-12-26T14:31:22.397Z,99181.16
2022-12-26T14:34:27.577Z,99183.30
2022-12-26T14:37:04.442Z,99181.84
2022-12-26T14:39:38.444Z,99180.59
2022-12-26T14:42:24.958Z,99180.16
2022-12-26T14:45:00.214Z,99178.39
2022-12-26T14:47:40.934Z,99176.83
2022-12-26T14:50:34.963Z,99174.89
2022-12-26T14:53:33.956Z,99180.40
2022-12-26T14:56:03.432Z,99177.44
2022-12-26T14:58:42.832Z,99175.32
2022-12-26T15:01:18.589Z,99173.67
2022-12-26T15:04:26.425Z,99178.73
2022-12-26T15:07:39.852Z,99177.70
2022-12-26T15:10:43.488Z,99173.06
2022-12-26T15:13:38.054Z,99168.04
2022-12-26T15:16:38.367Z,99163.52
2022-12-26T15:19:29.484Z,99161.49
2022-12-26T15:22:37.739Z,99156.02
2022-12-26T15:29:52.997Z,99148.08
2022-12-26T15:32:41.964Z,99149.48
2022-12-26T15:35:36.518Z,99151.44
2022-12-26T15:38:42.740Z,99149.99
2022-12-26T15:41:32.034Z,99148.42
2022-12-26T15:44:16.340Z,99150.35
2022-12-26T15:47:24.239Z,99151.17
2022-12-26T15:49:58.045Z,99150.23
2022-12-26T15:52:58.723Z,99151.62
2022-12-26T15:55:52.190Z,99151.23
2022-12-26T15:59:19.676Z,99147.95
2022-12-26T16:01:55.557Z,99144.36
2022-12-26T16:08:46.237Z,99156.40
2022-12-26T16:12:04.526Z,99158.83
2022-12-26T16:15:29.702Z,99159.17
2022-12-26T16:18:39.834Z,99163.67
2022-12-26T16:21:32.205Z,99167.32
2022-12-26T16:24:05.814Z,99168.60
2022-12-26T16:26:44.826Z,99167.27
2022-12-26T16:29:21.337Z,99165.39
2022-12-26T16:31:49.533Z,99171.10
2022-12-26T16:34:21.807Z,99178.33
2022-12-26T16:36:53.223Z,99176.86
2022-12-26T16:39:23.652Z,99180.18
2022-12-26T16:42:17.055Z,99186.63
2022-12-26T16:44:49.042Z,99181.30
2022-12-26T16:47:36.924Z,99185.28
2022-12-26T16:50:18.165Z,99181.67
2022-12-26T16:53:16.458Z,99187.89
2022-12-26T16:55:52.573Z,99185.20
2022-12-26T16:58:38.963Z,99179.81
2022-12-26T17:01:19.707Z,99173.39
2022-12-26T17:04:18.926Z,99167.73
2022-12-26T17:07:27.966Z,99170.98
2022-12-26T17:10:23.855Z,99171.22
2022-12-26T17:13:20.028Z,99174.99
2022-12-26T17:16:03.486Z,99173.81
2022-12-26T17:21:40.001Z,99168.80
2022-12-26T17:24:21.437Z,99163.93
2022-12-26T17:27:32.324Z,99161.09
2022-12-26T17:30:31.092Z,99158.93
2022-12-26T17:33:03.962Z,99162.45
2022-12-26T17:36:25.399Z,99160.03
2022-12-26T17:38:30.055Z,99156.11
2022-12-26T17:41:06.886Z,99152.81
2022-12-26T17:43:47.807Z,99158.92
2022-12-26T17:46:23.142Z,99157.46
2022-12-26T17:48:58.097Z,99152.96
2022-12-26T17:51:46.219Z,99150.46
2022-12-26T17:54:26.166Z,99151.98
2022-12-26T18:00:31.498Z,99156.31
2022-12-26T18:03:39.749Z,99154.21
2022-12-26T18:06:47.485Z,99152.63
2022-12-26T18:09:40.772Z,99153.13
2022-12-26T18:17:22.002Z,99143.23
2022-12-26T18:19:52.416Z,99135.30
2022-12-26T18:22:32.253Z,99133.05
2022-12-26T18:29:19.174Z,99129.18
2022-12-26T18:31:59.039Z,99134.70
2022-12-26T18:35:17.267Z,99131.83
2022-12-26T18:38:00.909Z,99132.64
2022-12-26T18:49:48.342Z,99114.32
2022-12-26T19:09:23.961Z,99113.52
2022-12-26T19:20:28.128Z,99101.54
2022-12-26T19:31:28.915Z,99096.19
2022-12-26T19:42:20.074Z,99090.71
2022-12-26T19:57:24.655Z,99073.09
2022-12-26T20:04:11.165Z,99066.80
2022-12-26T20:07:20.026Z,99065.57
2022-12-26T20:14:11.608Z,99070.57
2022-12-26T20:24:55.721Z,99063.23
2022-12-26T20:28:04.215Z,99064.25
2022-12-26T20:34:51.074Z,99055.38
2022-12-26T20:37:59.386Z,99054.95
2022-12-26T20:44:45.546Z,99061.13
2022-12-26T20:47:44.455Z,99058.96
2022-12-26T20:58:52.205Z,99050.70
2022-12-26T21:09:52.372Z,99055.36
2022-12-26T21:25:14.696Z,99033.98
2022-12-26T21:28:16.871Z,99029.00
2022-12-26T21:35:07.525Z,99032.34
2022-12-26T21:38:09.602Z,99027.58
2022-12-26T21:44:59.614Z,99013.58
2022-12-26T22:00:09.316Z,99017.77
2022-12-26T22:14:33.927Z,98997.80
2022-12-26T22:21:25.243Z,98987.10
2022-12-26T22:24:10.635Z,98983.70
2022-12-26T22:30:58.836Z,98980.81
2022-12-26T22:34:05.788Z,98983.21
2022-12-26T22:40:57.765Z,98980.40
2022-12-26T22:51:44.179Z,98986.28
2022-12-26T22:54:47.452Z,98992.44
2022-12-26T23:10:30.016Z,98973.12
2022-12-26T23:25:31.573Z,98966.71
2022-12-26T23:32:19.220Z,98960.09
2022-12-26T23:43:24.573Z,98936.71
2022-12-26T23:58:29.724Z,98918.90
